Beauraing, Belgium
Current Conditions -  °F | °C
As of 12:25 PM on Thursday 23 Oct 2014 (Local Time) from EBFS Reporting Station
Drizzle Drizzle  
Wind Chill: 10°   Ceiling: 600
Heat Index: 10°   Visibility: 2.8mi
Dew Point:   Wind: 6mph
Humidity: 94%   Direction: 200°SSW
Pressure: 30.27"   Gusts: NA
Location:  50.11°N, 4.96°E
Report Text: EBFS 231025Z 20005KT 4500 -DZ SCT004 BKN006 BKN008 10/09 Q1025 YLO GRN TEMPO YLO
Loading
Personal Weather Stations






























Interactive Weather Map
Tropical Storm Tracking
New forecast layout! Learn more

10-Day Weather Forecast

Advertisements
Track Severe Weather on mobile